createdAt,value
2022-09-16T00:00:14.178Z,1.23
2022-09-16T00:03:07.403Z,1.25
2022-09-16T00:06:00.200Z,1.40
2022-09-16T00:08:56.981Z,1.38
2022-09-16T00:11:50.484Z,1.30
2022-09-16T00:14:43.578Z,1.50
2022-09-16T00:17:37.818Z,1.20
2022-09-16T00:20:30.143Z,1.40
2022-09-16T00:23:23.460Z,1.52
2022-09-16T00:26:19.030Z,1.25
2022-09-16T00:29:13.790Z,1.40
2022-09-16T00:32:06.417Z,1.17
2022-09-16T00:34:59.523Z,1.20
2022-09-16T00:37:52.907Z,1.17
2022-09-16T00:40:48.209Z,1.27
2022-09-16T00:43:55.479Z,1.45
2022-09-16T00:46:49.390Z,1.27
2022-09-16T00:49:43.442Z,1.00
2022-09-16T00:52:37.254Z,1.00
2022-09-16T00:55:35.266Z,1.45
2022-09-16T00:58:35.845Z,1.25
2022-09-16T01:01:30.420Z,1.30
2022-09-16T01:04:27.737Z,1.25
2022-09-16T01:07:25.278Z,1.10
2022-09-16T01:10:21.052Z,1.20
2022-09-16T01:13:16.529Z,1.00
2022-09-16T01:16:13.438Z,1.10
2022-09-16T01:19:21.458Z,1.30
2022-09-16T01:22:26.751Z,1.10
2022-09-16T01:25:32.840Z,1.70
2022-09-16T01:28:47.830Z,1.30
2022-09-16T01:31:47.843Z,1.25
2022-09-16T01:34:51.540Z,1.40
2022-09-16T01:37:53.915Z,1.20
2022-09-16T01:40:55.991Z,1.30
2022-09-16T01:43:57.065Z,1.33
2022-09-16T01:47:01.172Z,1.10
2022-09-16T01:50:02.103Z,1.10
2022-09-16T01:53:04.084Z,1.05
2022-09-16T01:56:02.291Z,0.95
2022-09-16T01:59:02.177Z,1.10
2022-09-16T02:02:00.598Z,1.35
2022-09-16T02:04:57.416Z,1.40
2022-09-16T02:07:55.407Z,1.20
2022-09-16T02:10:52.702Z,1.30
2022-09-16T02:13:48.666Z,1.38
2022-09-16T02:16:46.455Z,1.13
2022-09-16T02:19:44.868Z,1.27
2022-09-16T02:22:42.979Z,1.15
2022-09-16T02:25:39.005Z,1.42
2022-09-16T02:28:35.969Z,1.20
2022-09-16T02:31:34.895Z,1.38
2022-09-16T02:34:31.173Z,1.00
2022-09-16T02:37:32.208Z,1.08
2022-09-16T02:40:30.223Z,1.15
2022-09-16T02:43:24.220Z,1.08
2022-09-16T02:46:26.096Z,1.10
2022-09-16T02:49:27.571Z,1.45
2022-09-16T02:52:31.200Z,1.35
2022-09-16T02:55:37.378Z,1.05
2022-09-16T02:58:30.928Z,1.08
2022-09-16T03:01:25.219Z,1.00
2022-09-16T03:04:20.759Z,1.13
2022-09-16T03:07:15.081Z,1.10
2022-09-16T03:10:12.737Z,1.10
2022-09-16T03:13:11.664Z,1.15
2022-09-16T03:16:08.257Z,0.95
2022-09-16T03:19:12.927Z,1.20
2022-09-16T03:22:14.092Z,1.00
2022-09-16T03:25:19.707Z,0.90
2022-09-16T03:28:16.903Z,1.10
2022-09-16T03:31:14.078Z,1.20
2022-09-16T03:34:10.565Z,1.25
2022-09-16T03:37:08.159Z,1.00
2022-09-16T03:40:10.013Z,1.08
2022-09-16T03:43:12.198Z,0.85
2022-09-16T03:46:11.668Z,0.77
2022-09-16T03:49:04.687Z,1.10
2022-09-16T03:51:57.841Z,1.25
2022-09-16T03:54:50.849Z,1.70
2022-09-16T03:57:44.403Z,1.50
2022-09-16T04:00:39.275Z,1.17
2022-09-16T04:03:33.497Z,1.13
2022-09-16T04:06:26.665Z,1.70
2022-09-16T04:09:19.544Z,1.27
2022-09-16T04:12:12.531Z,1.67
2022-09-16T04:15:06.578Z,1.60
2022-09-16T04:18:01.570Z,1.23
2022-09-16T04:20:57.909Z,1.13
2022-09-16T04:23:51.361Z,1.42
2022-09-16T04:26:45.461Z,1.52
2022-09-16T04:29:38.725Z,1.40
2022-09-16T04:32:31.551Z,1.20
2022-09-16T04:35:26.604Z,1.23
2022-09-16T04:38:19.686Z,1.48
2022-09-16T04:41:15.267Z,1.27
2022-09-16T04:44:08.639Z,1.30
2022-09-16T04:47:01.640Z,1.40
2022-09-16T04:49:54.605Z,1.10
2022-09-16T04:52:49.047Z,1.30
2022-09-16T04:55:42.103Z,1.30
2022-09-16T04:58:35.924Z,1.30
2022-09-16T05:01:31.073Z,1.30
2022-09-16T05:04:24.467Z,1.48
2022-09-16T05:07:17.474Z,1.08
2022-09-16T05:10:11.943Z,1.23
2022-09-16T05:13:04.652Z,1.50
2022-09-16T05:16:01.576Z,1.73
2022-09-16T05:18:57.855Z,1.00
2022-09-16T05:21:51.196Z,1.48
2022-09-16T05:24:44.900Z,1.13
2022-09-16T05:27:39.411Z,1.10
2022-09-16T05:30:32.742Z,1.35
2022-09-16T05:33:25.386Z,1.02
2022-09-16T05:36:19.369Z,1.20
2022-09-16T05:39:28.497Z,1.20
2022-09-16T05:42:21.741Z,1.02
2022-09-16T05:45:20.098Z,1.13
2022-09-16T05:48:16.644Z,1.08
2022-09-16T05:51:12.495Z,1.10
2022-09-16T05:54:05.928Z,1.05
2022-09-16T05:57:01.253Z,1.08
2022-09-16T05:59:58.081Z,2.03
2022-09-16T06:02:52.199Z,1.30
2022-09-16T06:05:45.980Z,1.17
2022-09-16T06:08:39.195Z,1.08
2022-09-16T06:11:33.122Z,1.30
2022-09-16T06:14:26.471Z,1.02
2022-09-16T06:17:19.724Z,1.33
2022-09-16T06:20:14.784Z,1.50
2022-09-16T06:23:08.084Z,1.38
2022-09-16T06:26:02.174Z,1.20
2022-09-16T06:28:56.245Z,1.38
2022-09-16T06:31:49.848Z,1.30
2022-09-16T06:34:42.733Z,0.98
2022-09-16T06:37:36.991Z,1.10
2022-09-16T06:40:30.065Z,1.40
2022-09-16T06:43:22.745Z,1.05
2022-09-16T06:46:17.952Z,1.50
2022-09-16T06:49:12.870Z,1.52
2022-09-16T06:52:05.713Z,1.10
2022-09-16T06:55:01.213Z,1.35
2022-09-16T06:57:54.878Z,1.10
2022-09-16T07:00:47.870Z,1.20
2022-09-16T07:03:43.163Z,1.40
2022-09-16T07:07:08.847Z,1.50
2022-09-16T07:09:48.980Z,1.30
2022-09-16T07:12:42.924Z,1.00
2022-09-16T07:15:50.910Z,1.10
2022-09-16T07:18:49.111Z,1.23
2022-09-16T07:21:41.862Z,1.10
2022-09-16T07:24:34.779Z,1.15
2022-09-16T07:27:28.318Z,1.77
2022-09-16T07:30:23.171Z,1.20
2022-09-16T07:33:15.885Z,1.23
2022-09-16T07:36:11.007Z,1.40
2022-09-16T07:39:05.824Z,0.77
2022-09-16T07:42:01.600Z,1.30
2022-09-16T07:44:58.842Z,1.15
2022-09-16T07:47:53.185Z,1.10
2022-09-16T07:50:45.656Z,1.10
2022-09-16T07:53:39.455Z,0.88
2022-09-16T07:56:34.409Z,0.80
2022-09-16T07:59:27.940Z,1.38
2022-09-16T08:02:21.350Z,1.08
2022-09-16T08:05:16.307Z,0.90
2022-09-16T08:08:09.860Z,1.00
2022-09-16T08:11:03.791Z,1.20
2022-09-16T08:13:58.980Z,1.05
2022-09-16T08:16:52.104Z,1.08
2022-09-16T08:19:44.450Z,1.17
2022-09-16T08:22:39.116Z,1.00
2022-09-16T08:25:31.854Z,0.98
2022-09-16T08:28:24.964Z,1.00
2022-09-16T08:31:18.884Z,1.20
2022-09-16T08:34:11.688Z,0.90
2022-09-16T08:37:04.988Z,1.17
2022-09-16T08:39:59.424Z,1.08
2022-09-16T08:43:05.405Z,1.00
2022-09-16T08:46:09.548Z,1.05
2022-09-16T08:49:12.045Z,1.00
2022-09-16T08:52:10.741Z,0.93
2022-09-16T08:55:11.557Z,0.88
2022-09-16T08:58:08.667Z,1.40
2022-09-16T09:01:06.032Z,1.27
2022-09-16T09:04:00.506Z,1.00
2022-09-16T09:07:07.900Z,1.20
2022-09-16T09:10:10.756Z,0.93
2022-09-16T09:13:13.859Z,1.23
2022-09-16T09:16:17.475Z,1.05
2022-09-16T09:19:31.368Z,1.50
2022-09-16T09:22:36.499Z,1.05
2022-09-16T09:25:39.525Z,1.30
2022-09-16T09:29:08.772Z,0.90
2022-09-16T09:32:15.877Z,1.00
2022-09-16T09:35:22.867Z,1.10
2022-09-16T09:38:36.798Z,0.70
2022-09-16T09:41:35.516Z,1.13
2022-09-16T09:44:42.909Z,1.02
2022-09-16T09:47:42.201Z,1.13
2022-09-16T09:50:41.343Z,0.98
2022-09-16T09:53:39.231Z,0.98
2022-09-16T09:56:38.821Z,1.00
2022-09-16T09:59:38.427Z,0.90
2022-09-16T10:02:32.029Z,0.80
2022-09-16T10:05:27.020Z,0.90
2022-09-16T10:08:30.184Z,0.80
2022-09-16T10:11:25.093Z,0.82
2022-09-16T10:14:32.388Z,1.02
2022-09-16T10:17:28.233Z,1.10
2022-09-16T10:20:29.308Z,1.08
2022-09-16T10:23:29.737Z,1.00
2022-09-16T10:26:26.017Z,1.17
2022-09-16T10:29:20.292Z,1.10
2022-09-16T10:32:18.989Z,1.00
2022-09-16T10:35:21.020Z,1.15
2022-09-16T10:38:19.051Z,0.90
2022-09-16T10:41:22.025Z,0.88
2022-09-16T10:44:18.770Z,1.30
2022-09-16T10:47:20.250Z,0.85
2022-09-16T10:50:19.047Z,0.65
2022-09-16T10:53:24.155Z,0.80
2022-09-16T10:56:20.619Z,1.10
2022-09-16T10:59:15.421Z,1.00
2022-09-16T11:02:18.962Z,0.65
2022-09-16T11:05:22.821Z,0.80
2022-09-16T11:08:27.756Z,1.40
2022-09-16T11:14:36.421Z,0.98
2022-09-16T11:17:52.533Z,0.90
2022-09-16T11:21:10.006Z,1.00
2022-09-16T11:24:12.935Z,0.85
2022-09-16T11:27:15.580Z,0.93
2022-09-16T11:30:13.107Z,0.95
2022-09-16T11:33:22.274Z,1.17
2022-09-16T11:36:26.071Z,0.88
2022-09-16T11:39:35.988Z,0.80
2022-09-16T11:42:34.826Z,0.98
2022-09-16T11:45:42.266Z,0.80
2022-09-16T11:48:48.777Z,0.90
2022-09-16T11:51:58.300Z,0.90
2022-09-16T11:55:06.797Z,0.85
2022-09-16T11:58:04.876Z,0.90
2022-09-16T12:01:11.131Z,0.70
2022-09-16T12:04:10.838Z,0.70
2022-09-16T12:07:12.161Z,0.73
2022-09-16T12:10:13.687Z,0.88
2022-09-16T12:13:15.324Z,0.98
2022-09-16T12:16:12.277Z,0.70
2022-09-16T12:19:12.627Z,0.77
2022-09-16T12:22:13.090Z,0.90
2022-09-16T12:25:13.060Z,0.80
2022-09-16T12:28:17.364Z,0.85
2022-09-16T12:31:23.076Z,0.80
2022-09-16T12:34:23.298Z,0.73
2022-09-16T12:37:25.795Z,0.70
2022-09-16T12:40:24.546Z,0.90
2022-09-16T12:44:02.190Z,0.75
2022-09-16T12:47:31.240Z,0.73
2022-09-16T12:50:44.313Z,0.75
2022-09-16T12:54:03.114Z,0.70
2022-09-16T12:57:23.049Z,1.00
2022-09-16T13:00:21.923Z,0.70
2022-09-16T13:03:19.085Z,0.77
2022-09-16T13:06:23.053Z,0.77
2022-09-16T13:09:23.615Z,0.80
2022-09-16T13:15:39.051Z,0.90
2022-09-16T13:18:44.653Z,0.80
2022-09-16T13:21:44.884Z,0.85
2022-09-16T13:24:42.236Z,0.60
2022-09-16T13:27:36.883Z,0.75
2022-09-16T13:30:36.679Z,0.90
2022-09-16T13:33:30.383Z,0.90
2022-09-16T13:36:34.787Z,0.90
2022-09-16T13:39:30.667Z,0.90
2022-09-16T13:42:26.125Z,0.77
2022-09-16T13:45:32.841Z,0.60
2022-09-16T13:48:28.713Z,1.08
2022-09-16T13:51:23.655Z,0.80
2022-09-16T13:54:23.330Z,0.70
2022-09-16T13:57:27.536Z,0.80
2022-09-16T14:00:22.950Z,0.90
2022-09-16T14:03:42.142Z,0.80
2022-09-16T14:07:03.619Z,0.80
2022-09-16T14:10:01.808Z,0.80
2022-09-16T14:13:10.196Z,0.63
2022-09-16T14:16:03.638Z,1.00
2022-09-16T14:19:04.329Z,0.70
2022-09-16T14:22:06.608Z,0.98
2022-09-16T14:25:06.486Z,1.10
2022-09-16T14:28:17.056Z,0.77
2022-09-16T14:31:15.449Z,0.70
2022-09-16T14:34:11.032Z,0.82
2022-09-16T14:37:06.253Z,0.90
2022-09-16T14:40:06.173Z,0.80
2022-09-16T14:43:03.149Z,0.90
2022-09-16T14:45:59.657Z,0.73
2022-09-16T14:48:53.568Z,0.73
2022-09-16T14:51:50.853Z,0.80
2022-09-16T14:54:46.326Z,1.00
2022-09-16T14:57:39.071Z,0.95
2022-09-16T15:00:38.470Z,0.75
2022-09-16T15:03:38.276Z,1.00
2022-09-16T15:06:36.789Z,0.98
2022-09-16T15:09:37.556Z,1.20
2022-09-16T15:12:34.152Z,1.08
2022-09-16T15:15:29.460Z,0.80
2022-09-16T15:18:25.552Z,0.70
2022-09-16T15:21:22.629Z,0.80
2022-09-16T15:24:21.402Z,0.80
2022-09-16T15:27:22.303Z,0.68
2022-09-16T15:30:23.423Z,0.88
2022-09-16T15:33:34.544Z,0.93
2022-09-16T15:36:41.815Z,0.88
2022-09-16T15:39:38.357Z,0.80
2022-09-16T15:42:32.037Z,0.82
2022-09-16T15:45:25.419Z,0.70
2022-09-16T15:48:20.874Z,0.77
2022-09-16T15:51:29.376Z,0.80
2022-09-16T15:54:27.522Z,1.00
2022-09-16T15:57:29.816Z,0.70
2022-09-16T16:00:23.137Z,0.80
2022-09-16T16:03:21.235Z,0.65
2022-09-16T16:06:14.914Z,0.73
2022-09-16T16:09:08.730Z,0.70
2022-09-16T16:12:07.856Z,0.80
2022-09-16T16:15:01.419Z,1.10
2022-09-16T16:17:56.836Z,1.30
2022-09-16T16:20:50.490Z,1.42
2022-09-16T16:23:43.687Z,1.48
2022-09-16T16:26:37.388Z,1.55
2022-09-16T16:29:32.551Z,1.90
2022-09-16T16:32:25.189Z,2.03
2022-09-16T16:35:17.873Z,1.95
2022-09-16T16:38:11.189Z,2.35
2022-09-16T16:41:04.262Z,2.40
2022-09-16T16:43:57.398Z,2.17
2022-09-16T16:46:52.954Z,2.45
2022-09-16T16:49:50.820Z,2.03
2022-09-16T16:52:44.381Z,2.45
2022-09-16T16:55:37.224Z,2.03
2022-09-16T16:58:31.362Z,2.50
2022-09-16T17:01:24.504Z,1.90
2022-09-16T17:04:19.220Z,2.30
2022-09-16T17:07:25.851Z,2.10
2022-09-16T17:10:20.514Z,1.90
2022-09-16T17:13:13.473Z,1.95
2022-09-16T17:16:08.063Z,1.67
2022-09-16T17:19:03.242Z,1.75
2022-09-16T17:21:57.740Z,1.42
2022-09-16T17:24:51.452Z,1.92
2022-09-16T17:27:44.376Z,1.80
2022-09-16T17:30:37.438Z,1.55
2022-09-16T17:33:30.936Z,2.03
2022-09-16T17:36:26.227Z,1.65
2022-09-16T17:39:22.207Z,1.48
2022-09-16T17:42:15.375Z,1.65
2022-09-16T17:45:08.993Z,1.20
2022-09-16T17:48:02.129Z,1.40
2022-09-16T17:50:56.087Z,1.40
2022-09-16T17:53:49.337Z,1.30
2022-09-16T17:56:44.558Z,1.30
2022-09-16T17:59:37.050Z,1.27
2022-09-16T18:02:30.561Z,1.30
2022-09-16T18:05:26.725Z,1.25
2022-09-16T18:08:23.604Z,1.40
2022-09-16T18:11:18.100Z,1.65
2022-09-16T18:14:14.399Z,1.25
2022-09-16T18:17:07.367Z,1.40
2022-09-16T18:20:03.719Z,1.33
2022-09-16T18:22:59.514Z,1.10
2022-09-16T18:25:52.456Z,1.10
2022-09-16T18:29:18.893Z,1.20
2022-09-16T18:32:01.674Z,1.10
2022-09-16T18:34:54.879Z,0.88
2022-09-16T18:37:48.593Z,1.15
2022-09-16T18:40:42.667Z,1.17
2022-09-16T18:43:35.699Z,1.30
2022-09-16T18:46:29.833Z,1.05
2022-09-16T18:49:27.061Z,1.00
2022-09-16T18:52:20.441Z,1.20
2022-09-16T18:55:14.709Z,0.80
2022-09-16T18:58:07.447Z,0.95
2022-09-16T19:01:09.501Z,1.10
2022-09-16T19:04:04.531Z,1.25
2022-09-16T19:07:07.293Z,0.98
2022-09-16T19:10:00.442Z,1.00
2022-09-16T19:12:53.441Z,0.80
2022-09-16T19:15:46.403Z,1.20
2022-09-16T19:18:39.820Z,1.10
2022-09-16T19:21:33.630Z,0.75
2022-09-16T19:24:28.313Z,1.23
2022-09-16T19:27:21.532Z,0.93
2022-09-16T19:30:14.801Z,0.90
2022-09-16T19:33:08.218Z,1.27
2022-09-16T19:36:01.315Z,1.13
2022-09-16T19:38:54.905Z,0.90
2022-09-16T19:41:49.767Z,1.13
2022-09-16T19:44:42.645Z,1.00
2022-09-16T19:47:35.870Z,0.98
2022-09-16T19:50:29.626Z,1.23
2022-09-16T19:53:22.798Z,1.13
2022-09-16T19:56:21.181Z,1.15
2022-09-16T19:59:15.600Z,0.80
2022-09-16T20:02:11.080Z,0.93
2022-09-16T20:05:08.826Z,0.93
2022-09-16T20:08:02.617Z,0.77
2022-09-16T20:10:55.502Z,0.77
2022-09-16T20:13:49.673Z,1.00
2022-09-16T20:16:43.940Z,1.10
2022-09-16T20:19:37.324Z,1.00
2022-09-16T20:22:30.636Z,1.40
2022-09-16T20:25:23.886Z,0.90
2022-09-16T20:28:17.574Z,0.95
2022-09-16T20:31:14.231Z,0.70
2022-09-16T20:34:08.886Z,0.93
2022-09-16T20:37:02.420Z,0.90
2022-09-16T20:39:56.437Z,1.05
2022-09-16T20:42:49.319Z,1.08
2022-09-16T20:45:44.919Z,0.93
2022-09-16T20:48:38.706Z,0.98
2022-09-16T20:51:34.464Z,0.88
2022-09-16T20:54:27.103Z,1.00
2022-09-16T20:57:20.653Z,0.95
2022-09-16T21:00:15.011Z,1.38
2022-09-16T21:03:11.909Z,0.93
2022-09-16T21:06:06.747Z,1.25
2022-09-16T21:09:02.294Z,1.20
2022-09-16T21:11:55.367Z,0.80
2022-09-16T21:14:48.820Z,0.90
2022-09-16T21:17:41.656Z,1.02
2022-09-16T21:20:34.237Z,1.30
2022-09-16T21:23:27.763Z,1.02
2022-09-16T21:26:23.822Z,0.90
2022-09-16T21:29:20.724Z,1.05
2022-09-16T21:32:13.494Z,1.00
2022-09-16T21:35:07.391Z,0.93
2022-09-16T21:38:00.490Z,0.95
2022-09-16T21:40:58.259Z,1.38
2022-09-16T21:43:55.429Z,0.95
2022-09-16T21:46:49.530Z,1.00
2022-09-16T21:49:43.020Z,1.05
2022-09-16T21:52:36.335Z,1.10
2022-09-16T21:55:31.519Z,0.80
2022-09-16T21:58:24.388Z,1.05
2022-09-16T22:01:21.690Z,1.13
2022-09-16T22:04:15.856Z,0.80
2022-09-16T22:07:10.687Z,1.10
2022-09-16T22:10:03.527Z,0.70
2022-09-16T22:12:57.281Z,0.90
2022-09-16T22:15:50.993Z,0.95
2022-09-16T22:18:46.051Z,0.95
2022-09-16T22:21:41.572Z,1.20
2022-09-16T22:24:34.507Z,1.00
2022-09-16T22:27:29.683Z,1.10
2022-09-16T22:30:22.636Z,1.15
2022-09-16T22:33:15.618Z,1.10
2022-09-16T22:36:12.576Z,0.80
2022-09-16T22:39:07.759Z,0.90
2022-09-16T22:42:00.975Z,0.98
2022-09-16T22:44:54.646Z,0.57
2022-09-16T22:47:47.596Z,1.00
2022-09-16T22:50:40.663Z,1.10
2022-09-16T22:53:35.383Z,0.80
2022-09-16T22:56:31.905Z,0.95
2022-09-16T22:59:25.232Z,0.88
2022-09-16T23:02:18.604Z,1.00
2022-09-16T23:05:12.204Z,0.90
2022-09-16T23:08:05.651Z,1.23
2022-09-16T23:11:03.541Z,1.15
2022-09-16T23:13:57.989Z,1.08
2022-09-16T23:16:51.915Z,1.05
2022-09-16T23:19:44.256Z,1.08
2022-09-16T23:22:37.832Z,0.98
2022-09-16T23:25:30.770Z,1.00
2022-09-16T23:28:25.360Z,0.80
2022-09-16T23:31:20.130Z,1.10
2022-09-16T23:34:16.304Z,1.08
2022-09-16T23:37:09.379Z,1.00
2022-09-16T23:40:04.110Z,1.10
2022-09-16T23:42:57.752Z,0.90
2022-09-16T23:45:52.021Z,1.20
2022-09-16T23:48:46.209Z,1.00
2022-09-16T23:51:40.423Z,1.08
2022-09-16T23:54:33.663Z,0.80
2022-09-16T23:57:26.616Z,0.98
